Admiral — WCY6529 — position and weather

sailwx.info

Track history (hours):
 
Tides and Currents Weather Stations Pressure Air Temp Water Temp Dewpoint Dewpoint Depression Visibility Wind Speed Wind Dir Waves Ship Positions

Admiral

Owner: CROWLEY MARINE SERVICES INC, SEATTLE, WA. More information available from US FCC via Universal Licensing System and Coast Guard Vessel Documentation Center.

Last reported at 2015-Apr-28 03:12 UTC. Time now 2015-Apr-28 03:46 UTC.
Position N 33°44' W 118°17'.

; draft 5.3 m.

Type: Tug. MMSI: 366755020.

Date/timePositionNaut miles runAvg speedWind from/ knotsBaromVisibWave heightAir tempDewpointWater temp
2015-Apr-28 03:12N 33°44' W 118°17'0 0.0
2015-Apr-28 02:34N 33°44' W 118°17'0 0.0
2015-Apr-28 01:32N 33°44' W 118°17'2 1.6
2015-Apr-28 00:33N 33°46' W 118°16'0 0.2
2015-Apr-27 23:33N 33°46' W 118°16'0 0.4
2015-Apr-27 22:34N 33°46' W 118°17'3 3.2
2015-Apr-27 21:33N 33°43' W 118°15'3 3.2
2015-Apr-27 20:34N 33°46' W 118°15'0 0.5
2015-Apr-27 19:34N 33°46' W 118°15'0 0.4
2015-Apr-27 18:33N 33°46' W 118°16'1 1.5
2015-Apr-27 17:33N 33°44' W 118°17'0 0.0
2015-Apr-27 16:33N 33°44' W 118°17'0 0.0
2015-Apr-27 15:34N 33°44' W 118°17'3 3.2
2015-Apr-27 14:33N 33°43' W 118°13'1 1.1
2015-Apr-27 13:33N 33°44' W 118°13'3 3.3
2015-Apr-27 12:33N 33°45' W 118°16'0 0.2
2015-Apr-27 11:33N 33°45' W 118°17'1 0.5
2015-Apr-27 10:34N 33°45' W 118°16'1 1.4
2015-Apr-27 09:34N 33°43' W 118°16'1 1.1
2015-Apr-27 08:34N 33°44' W 118°17'0 0.0
2015-Apr-27 07:25N 33°44' W 118°17'0 0.0
2015-Apr-27 06:33N 33°44' W 118°17'3 1.1
2015-Apr-27 03:33N 33°45' W 118°13'0 0.1
2015-Apr-27 02:33N 33°45' W 118°13'2 1.8
2015-Apr-27 01:33N 33°43' W 118°13'2 1.2
2015-Apr-26 23:33N 33°44' W 118°16'2 2.2
2015-Apr-26 22:33N 33°46' W 118°16'3 2.9
2015-Apr-26 21:30N 33°43' W 118°15'3 3.2
2015-Apr-26 20:34N 33°46' W 118°13'0 0.0
2015-Apr-26 19:34N 33°46' W 118°13'2 1.7
2015-Apr-26 18:34N 33°44' W 118°12'1 1.3
2015-Apr-26 17:34N 33°45' W 118°13'0 0.0
2015-Apr-26 16:33N 33°45' W 118°13'1 0.6
2015-Apr-26 15:34N 33°46' W 118°13'1 0.7
2015-Apr-26 14:33N 33°45' W 118°13'1 0.2
2015-Apr-26 06:07N 33°44' W 118°14'2 4.0
2015-Apr-26 05:33N 33°46' W 118°13'1 0.6
2015-Apr-26 04:31N 33°46' W 118°13'1 0.6
2015-Apr-26 03:33N 33°46' W 118°13'3 1.6
2015-Apr-26 01:33N 33°44' W 118°17'0 0.0
2015-Apr-26 00:33N 33°44' W 118°17'0 0.0
2015-Apr-25 23:33N 33°44' W 118°17'1 1.3
2015-Apr-25 22:33N 33°46' W 118°16'1 0.3
2015-Apr-25 17:30N 33°44' W 118°17'0 0.0
2015-Apr-25 16:33N 33°44' W 118°17'1 0.6
2015-Apr-25 14:33N 33°46' W 118°16'0 0.1
2015-Apr-25 13:33N 33°46' W 118°16'2 1.9
2015-Apr-25 12:30N 33°44' W 118°16'1 0.9
2015-Apr-25 11:13N 33°45' W 118°16'1 0.7
2015-Apr-25 10:30N 33°45' W 118°16'3 3.3
2015-Apr-25 09:33N 33°43' W 118°13'2 1.8
2015-Apr-25 08:34N 33°45' W 118°14'2 0.2
2015-Apr-24 19:29N 33°44' W 118°17'0 0.0
2015-Apr-24 18:16N 33°44' W 118°17'0 0.0
2015-Apr-24 17:33N 33°44' W 118°17'0 0.0
2015-Apr-24 16:33N 33°44' W 118°17'0 0.0
2015-Apr-24 15:33N 33°44' W 118°17'1 0.7
2015-Apr-24 14:33N 33°45' W 118°16'0 0.1
2015-Apr-24 12:33N 33°45' W 118°16'0 0.2
2015-Apr-24 09:24N 33°45' W 118°17'3 1.8
2015-Apr-24 07:33N 33°44' W 118°12'0 0.4
2015-Apr-24 06:32N 33°45' W 118°12'1 0.7
2015-Apr-24 05:33N 33°45' W 118°13'0 0.0
2015-Apr-24 04:34N 33°45' W 118°13'0 0.0
2015-Apr-24 03:33N 33°45' W 118°13'1 1.1
2015-Apr-24 02:33N 33°44' W 118°12'1 0.8
2015-Apr-24 01:31N 33°45' W 118°12'3 2.6
2015-Apr-24 00:22N 33°44' W 118°16'0 0.2
2015-Apr-23 21:31N 33°43' W 118°16'1 0.9
2015-Apr-23 20:33N 33°44' W 118°17'0 0.1
2015-Apr-23 18:31N 33°44' W 118°17'0 0.0
2015-Apr-23 15:29N 33°44' W 118°17'3 1.5
2015-Apr-23 13:33N 33°44' W 118°13'1 1.4
2015-Apr-23 12:34N 33°46' W 118°13'2 2.3
2015-Apr-23 11:32N 33°44' W 118°13'2 0.4
2015-Apr-23 06:34N 33°45' W 118°13'1 1.1
2015-Apr-23 05:33N 33°46' W 118°13'2 1.8
2015-Apr-23 04:33N 33°45' W 118°13'0 0.2
2015-Apr-23 02:33N 33°45' W 118°13'1 1.4
2015-Apr-23 01:33N 33°46' W 118°13'2 1.8
2015-Apr-23 00:32N 33°45' W 118°12'0 0.2
2015-Apr-22 23:28N 33°45' W 118°13'0 0.0
2015-Apr-22 22:33N 33°45' W 118°13'0 0.3
2015-Apr-22 21:33N 33°45' W 118°13'0 0.0
2015-Apr-22 20:33N 33°45' W 118°13'3 1.4
2015-Apr-22 18:33N 33°45' W 118°16'0 0.1
2015-Apr-22 17:27N 33°45' W 118°16'0 0.0
2015-Apr-22 16:27N 33°45' W 118°16'1 0.7
2015-Apr-22 15:32N 33°46' W 118°16'0 0.1
2015-Apr-22 13:33N 33°46' W 118°15'1 0.3
2015-Apr-22 10:33N 33°46' W 118°16'1 0.1
2015-Apr-22 03:26N 33°45' W 118°16'0 0.4
2015-Apr-22 02:32N 33°45' W 118°17'0 0.2
2015-Apr-22 01:12N 33°44' W 118°17'0 0.0
2015-Apr-22 00:13N 33°44' W 118°17'0 0.0
2015-Apr-21 23:26N 33°44' W 118°17'0 0.0
2015-Apr-21 22:33N 33°44' W 118°17'0 0.0
2015-Apr-21 21:33N 33°44' W 118°17'0 0.0
2015-Apr-21 20:20N 33°44' W 118°17'0 0.0
2015-Apr-21 19:30N 33°44' W 118°17'0 0.0
2015-Apr-21 17:32N 33°44' W 118°17'0 0.0
2015-Apr-21 16:15N 33°44' W 118°17'1 0.1
2015-Apr-21 11:08N 33°45' W 118°16'1 1.0
2015-Apr-21 10:33N 33°46' W 118°16'0 0.0
2015-Apr-21 09:32N 33°46' W 118°16'1 0.1
2015-Apr-21 01:33N 33°46' W 118°15'0 0.3
2015-Apr-21 00:33N 33°46' W 118°15'3 1.8
2015-Apr-20 23:06N 33°43' W 118°16'1 1.2
2015-Apr-20 22:08N 33°43' W 118°15'2 3.7
2015-Apr-20 21:33N 33°44' W 118°17'1 1.4
2015-Apr-20 20:33N 33°45' W 118°16'0 0.5
2015-Apr-20 19:34N 33°45' W 118°16'1 0.7
2015-Apr-20 18:32N 33°45' W 118°17'0 0.1
2015-Apr-20 17:27N 33°44' W 118°17'0 0.0
2015-Apr-20 16:33N 33°44' W 118°17'0 0.0
2015-Apr-20 14:31N 33°44' W 118°17'1 1.0
2015-Apr-20 13:18N 33°44' W 118°15'1 0.8
2015-Apr-20 12:30N 33°43' W 118°16'1 0.7
2015-Apr-20 10:22N 33°44' W 118°17'0 0.0
2015-Apr-20 09:18N 33°44' W 118°17'0 0.0
2015-Apr-20 08:33N 33°44' W 118°17'0 0.0
2015-Apr-20 07:33N 33°44' W 118°17'0 0.0
2015-Apr-20 06:33N 33°44' W 118°17'0 0.0
2015-Apr-20 05:33N 33°44' W 118°17'1 0.7
2015-Apr-20 04:33N 33°44' W 118°16'3 3.4
2015-Apr-20 03:33N 33°45' W 118°12'0 0.4
2015-Apr-20 02:33N 33°45' W 118°13'1 0.7
2015-Apr-20 01:33N 33°45' W 118°13'0 0.0
2015-Apr-20 00:33N 33°45' W 118°13'1 1.1
2015-Apr-19 23:33N 33°46' W 118°14'1 1.0
2015-Apr-19 22:33N 33°45' W 118°13'1 1.2
2015-Apr-19 21:34N 33°46' W 118°13'0 0.0
2015-Apr-19 20:32N 33°46' W 118°13'0 0.4
2015-Apr-19 19:33N 33°46' W 118°13'3 2.5
2015-Apr-19 18:18N 33°43' W 118°11'2 2.1
2015-Apr-19 17:15N 33°43' W 118°13'3 4.2
2015-Apr-19 16:33N 33°44' W 118°17'0 0.0
2015-Apr-19 15:33N 33°44' W 118°17'1 0.3
2015-Apr-19 13:33N 33°45' W 118°16'5 4.7
2015-Apr-19 12:34N 33°41' W 118°14'4 4.4
2015-Apr-19 11:34N 33°44' W 118°17'0 0.0
2015-Apr-19 10:33N 33°44' W 118°17'0 0.0
2015-Apr-19 09:34N 33°44' W 118°17'0 0.0
2015-Apr-19 08:33N 33°44' W 118°17'0 0.0
2015-Apr-19 07:33N 33°44' W 118°17'0 0.0
2015-Apr-19 06:33N 33°44' W 118°17'0 0.0
2015-Apr-19 05:33N 33°44' W 118°17'0 0.0
2015-Apr-19 04:34N 33°44' W 118°17'0 0.0
2015-Apr-19 03:32N 33°44' W 118°17'0 0.0
2015-Apr-19 02:33N 33°44' W 118°17'0 0.0
2015-Apr-19 01:33N 33°44' W 118°17'0 0.0
2015-Apr-19 00:33N 33°44' W 118°17'2 1.6
2015-Apr-18 23:33N 33°43' W 118°16'4 3.6
2015-Apr-18 22:33N 33°46' W 118°14'1 1.3
2015-Apr-18 21:34N 33°45' W 118°15'3 3.0
2015-Apr-18 20:34N 33°44' W 118°11'0 0.1
2015-Apr-18 19:34N 33°44' W 118°12'1 1.4
2015-Apr-18 18:34N 33°44' W 118°10'6 5.5
2015-Apr-18 17:34N 33°44' W 118°17'0 0.3
2015-Apr-18 16:33N 33°44' W 118°17'0 0.0
2015-Apr-18 15:34N 33°44' W 118°17'0 0.0
2015-Apr-18 14:33N 33°44' W 118°17'0 0.0
2015-Apr-18 13:33N 33°44' W 118°17'1 1.5
2015-Apr-18 12:34N 33°44' W 118°15'1 1.5
2015-Apr-18 11:34N 33°45' W 118°16'0 0.3
2015-Apr-18 10:33N 33°45' W 118°16'1 0.9
2015-Apr-18 09:33N 33°44' W 118°17'0 0.0
2015-Apr-18 08:33N 33°44' W 118°17'0 0.0
2015-Apr-18 07:34N 33°44' W 118°17'0 0.0
2015-Apr-18 06:33N 33°44' W 118°17'0 0.0
2015-Apr-18 05:33N 33°44' W 118°17'0 0.0
2015-Apr-18 04:34N 33°44' W 118°17'0 0.0
2015-Apr-18 03:33N 33°44' W 118°17'  
Track history (hours):
 
Tides and Currents Weather Stations Pressure Air Temp Water Temp Dewpoint Dewpoint Depression Visibility Wind Speed Wind Dir Waves Ship Positions

Admiral

Owner: CROWLEY MARINE SERVICES INC, SEATTLE, WA. More information available from US FCC via Universal Licensing System and Coast Guard Vessel Documentation Center.

Last reported at 2015-Apr-28 03:12 UTC. Time now 2015-Apr-28 03:46 UTC.
Position N 33°44' W 118°17'.

; draft 5.3 m.

Type: Tug. MMSI: 366755020.

Date/timePositionNaut miles runAvg speedWind from/ knotsBaromVisibWave heightAir tempDewpointWater temp
2015-Apr-28 03:12N 33°44' W 118°17'0 0.0
2015-Apr-28 02:34N 33°44' W 118°17'0 0.0
2015-Apr-28 01:32N 33°44' W 118°17'2 1.6
2015-Apr-28 00:33N 33°46' W 118°16'0 0.2
2015-Apr-27 23:33N 33°46' W 118°16'0 0.4
2015-Apr-27 22:34N 33°46' W 118°17'3 3.2
2015-Apr-27 21:33N 33°43' W 118°15'3 3.2
2015-Apr-27 20:34N 33°46' W 118°15'0 0.5
2015-Apr-27 19:34N 33°46' W 118°15'0 0.4
2015-Apr-27 18:33N 33°46' W 118°16'1 1.5
2015-Apr-27 17:33N 33°44' W 118°17'0 0.0
2015-Apr-27 16:33N 33°44' W 118°17'0 0.0
2015-Apr-27 15:34N 33°44' W 118°17'3 3.2
2015-Apr-27 14:33N 33°43' W 118°13'1 1.1
2015-Apr-27 13:33N 33°44' W 118°13'3 3.3
2015-Apr-27 12:33N 33°45' W 118°16'0 0.2
2015-Apr-27 11:33N 33°45' W 118°17'1 0.5
2015-Apr-27 10:34N 33°45' W 118°16'1 1.4
2015-Apr-27 09:34N 33°43' W 118°16'1 1.1
2015-Apr-27 08:34N 33°44' W 118°17'0 0.0
2015-Apr-27 07:25N 33°44' W 118°17'0 0.0
2015-Apr-27 06:33N 33°44' W 118°17'3 1.1
2015-Apr-27 03:33N 33°45' W 118°13'0 0.1
2015-Apr-27 02:33N 33°45' W 118°13'2 1.8
2015-Apr-27 01:33N 33°43' W 118°13'2 1.2
2015-Apr-26 23:33N 33°44' W 118°16'2 2.2
2015-Apr-26 22:33N 33°46' W 118°16'3 2.9
2015-Apr-26 21:30N 33°43' W 118°15'3 3.2
2015-Apr-26 20:34N 33°46' W 118°13'0 0.0
2015-Apr-26 19:34N 33°46' W 118°13'2 1.7
2015-Apr-26 18:34N 33°44' W 118°12'1 1.3
2015-Apr-26 17:34N 33°45' W 118°13'0 0.0
2015-Apr-26 16:33N 33°45' W 118°13'1 0.6
2015-Apr-26 15:34N 33°46' W 118°13'1 0.7
2015-Apr-26 14:33N 33°45' W 118°13'1 0.2
2015-Apr-26 06:07N 33°44' W 118°14'2 4.0
2015-Apr-26 05:33N 33°46' W 118°13'1 0.6
2015-Apr-26 04:31N 33°46' W 118°13'1 0.6
2015-Apr-26 03:33N 33°46' W 118°13'3 1.6
2015-Apr-26 01:33N 33°44' W 118°17'0 0.0
2015-Apr-26 00:33N 33°44' W 118°17'0 0.0
2015-Apr-25 23:33N 33°44' W 118°17'1 1.3
2015-Apr-25 22:33N 33°46' W 118°16'1 0.3
2015-Apr-25 17:30N 33°44' W 118°17'0 0.0
2015-Apr-25 16:33N 33°44' W 118°17'1 0.6
2015-Apr-25 14:33N 33°46' W 118°16'0 0.1
2015-Apr-25 13:33N 33°46' W 118°16'2 1.9
2015-Apr-25 12:30N 33°44' W 118°16'1 0.9
2015-Apr-25 11:13N 33°45' W 118°16'1 0.7
2015-Apr-25 10:30N 33°45' W 118°16'3 3.3
2015-Apr-25 09:33N 33°43' W 118°13'2 1.8
2015-Apr-25 08:34N 33°45' W 118°14'2 0.2
2015-Apr-24 19:29N 33°44' W 118°17'0 0.0
2015-Apr-24 18:16N 33°44' W 118°17'0 0.0
2015-Apr-24 17:33N 33°44' W 118°17'0 0.0
2015-Apr-24 16:33N 33°44' W 118°17'0 0.0
2015-Apr-24 15:33N 33°44' W 118°17'1 0.7
2015-Apr-24 14:33N 33°45' W 118°16'0 0.1
2015-Apr-24 12:33N 33°45' W 118°16'0 0.2
2015-Apr-24 09:24N 33°45' W 118°17'3 1.8
2015-Apr-24 07:33N 33°44' W 118°12'0 0.4
2015-Apr-24 06:32N 33°45' W 118°12'1 0.7
2015-Apr-24 05:33N 33°45' W 118°13'0 0.0
2015-Apr-24 04:34N 33°45' W 118°13'0 0.0
2015-Apr-24 03:33N 33°45' W 118°13'1 1.1
2015-Apr-24 02:33N 33°44' W 118°12'1 0.8
2015-Apr-24 01:31N 33°45' W 118°12'3 2.6
2015-Apr-24 00:22N 33°44' W 118°16'0 0.2
2015-Apr-23 21:31N 33°43' W 118°16'1 0.9
2015-Apr-23 20:33N 33°44' W 118°17'0 0.1
2015-Apr-23 18:31N 33°44' W 118°17'0 0.0
2015-Apr-23 15:29N 33°44' W 118°17'3 1.5
2015-Apr-23 13:33N 33°44' W 118°13'1 1.4
2015-Apr-23 12:34N 33°46' W 118°13'2 2.3
2015-Apr-23 11:32N 33°44' W 118°13'2 0.4
2015-Apr-23 06:34N 33°45' W 118°13'1 1.1
2015-Apr-23 05:33N 33°46' W 118°13'2 1.8
2015-Apr-23 04:33N 33°45' W 118°13'0 0.2
2015-Apr-23 02:33N 33°45' W 118°13'1 1.4
2015-Apr-23 01:33N 33°46' W 118°13'2 1.8
2015-Apr-23 00:32N 33°45' W 118°12'0 0.2
2015-Apr-22 23:28N 33°45' W 118°13'0 0.0
2015-Apr-22 22:33N 33°45' W 118°13'0 0.3
2015-Apr-22 21:33N 33°45' W 118°13'0 0.0
2015-Apr-22 20:33N 33°45' W 118°13'3 1.4
2015-Apr-22 18:33N 33°45' W 118°16'0 0.1
2015-Apr-22 17:27N 33°45' W 118°16'0 0.0
2015-Apr-22 16:27N 33°45' W 118°16'1 0.7
2015-Apr-22 15:32N 33°46' W 118°16'0 0.1
2015-Apr-22 13:33N 33°46' W 118°15'1 0.3
2015-Apr-22 10:33N 33°46' W 118°16'1 0.1
2015-Apr-22 03:26N 33°45' W 118°16'0 0.4
2015-Apr-22 02:32N 33°45' W 118°17'0 0.2
2015-Apr-22 01:12N 33°44' W 118°17'0 0.0
2015-Apr-22 00:13N 33°44' W 118°17'0 0.0
2015-Apr-21 23:26N 33°44' W 118°17'0 0.0
2015-Apr-21 22:33N 33°44' W 118°17'0 0.0
2015-Apr-21 21:33N 33°44' W 118°17'0 0.0
2015-Apr-21 20:20N 33°44' W 118°17'0 0.0
2015-Apr-21 19:30N 33°44' W 118°17'0 0.0
2015-Apr-21 17:32N 33°44' W 118°17'0 0.0
2015-Apr-21 16:15N 33°44' W 118°17'1 0.1
2015-Apr-21 11:08N 33°45' W 118°16'1 1.0
2015-Apr-21 10:33N 33°46' W 118°16'0 0.0
2015-Apr-21 09:32N 33°46' W 118°16'1 0.1
2015-Apr-21 01:33N 33°46' W 118°15'0 0.3
2015-Apr-21 00:33N 33°46' W 118°15'3 1.8
2015-Apr-20 23:06N 33°43' W 118°16'1 1.2
2015-Apr-20 22:08N 33°43' W 118°15'2 3.7
2015-Apr-20 21:33N 33°44' W 118°17'1 1.4
2015-Apr-20 20:33N 33°45' W 118°16'0 0.5
2015-Apr-20 19:34N 33°45' W 118°16'1 0.7
2015-Apr-20 18:32N 33°45' W 118°17'0 0.1
2015-Apr-20 17:27N 33°44' W 118°17'0 0.0
2015-Apr-20 16:33N 33°44' W 118°17'0 0.0
2015-Apr-20 14:31N 33°44' W 118°17'1 1.0
2015-Apr-20 13:18N 33°44' W 118°15'1 0.8
2015-Apr-20 12:30N 33°43' W 118°16'1 0.7
2015-Apr-20 10:22N 33°44' W 118°17'0 0.0
2015-Apr-20 09:18N 33°44' W 118°17'0 0.0
2015-Apr-20 08:33N 33°44' W 118°17'0 0.0
2015-Apr-20 07:33N 33°44' W 118°17'0 0.0
2015-Apr-20 06:33N 33°44' W 118°17'0 0.0
2015-Apr-20 05:33N 33°44' W 118°17'1 0.7
2015-Apr-20 04:33N 33°44' W 118°16'3 3.4
2015-Apr-20 03:33N 33°45' W 118°12'0 0.4
2015-Apr-20 02:33N 33°45' W 118°13'1 0.7
2015-Apr-20 01:33N 33°45' W 118°13'0 0.0
2015-Apr-20 00:33N 33°45' W 118°13'1 1.1
2015-Apr-19 23:33N 33°46' W 118°14'1 1.0
2015-Apr-19 22:33N 33°45' W 118°13'1 1.2
2015-Apr-19 21:34N 33°46' W 118°13'0 0.0
2015-Apr-19 20:32N 33°46' W 118°13'0 0.4
2015-Apr-19 19:33N 33°46' W 118°13'3 2.5
2015-Apr-19 18:18N 33°43' W 118°11'2 2.1
2015-Apr-19 17:15N 33°43' W 118°13'3 4.2
2015-Apr-19 16:33N 33°44' W 118°17'0 0.0
2015-Apr-19 15:33N 33°44' W 118°17'1 0.3
2015-Apr-19 13:33N 33°45' W 118°16'5 4.7
2015-Apr-19 12:34N 33°41' W 118°14'4 4.4
2015-Apr-19 11:34N 33°44' W 118°17'0 0.0
2015-Apr-19 10:33N 33°44' W 118°17'0 0.0
2015-Apr-19 09:34N 33°44' W 118°17'0 0.0
2015-Apr-19 08:33N 33°44' W 118°17'0 0.0
2015-Apr-19 07:33N 33°44' W 118°17'0 0.0
2015-Apr-19 06:33N 33°44' W 118°17'0 0.0
2015-Apr-19 05:33N 33°44' W 118°17'0 0.0
2015-Apr-19 04:34N 33°44' W 118°17'0 0.0
2015-Apr-19 03:32N 33°44' W 118°17'0 0.0
2015-Apr-19 02:33N 33°44' W 118°17'0 0.0
2015-Apr-19 01:33N 33°44' W 118°17'0 0.0
2015-Apr-19 00:33N 33°44' W 118°17'2 1.6
2015-Apr-18 23:33N 33°43' W 118°16'4 3.6
2015-Apr-18 22:33N 33°46' W 118°14'1 1.3
2015-Apr-18 21:34N 33°45' W 118°15'3 3.0
2015-Apr-18 20:34N 33°44' W 118°11'0 0.1
2015-Apr-18 19:34N 33°44' W 118°12'1 1.4
2015-Apr-18 18:34N 33°44' W 118°10'6 5.5
2015-Apr-18 17:34N 33°44' W 118°17'0 0.3
2015-Apr-18 16:33N 33°44' W 118°17'0 0.0
2015-Apr-18 15:34N 33°44' W 118°17'0 0.0
2015-Apr-18 14:33N 33°44' W 118°17'0 0.0
2015-Apr-18 13:33N 33°44' W 118°17'1 1.5
2015-Apr-18 12:34N 33°44' W 118°15'1 1.5
2015-Apr-18 11:34N 33°45' W 118°16'0 0.3
2015-Apr-18 10:33N 33°45' W 118°16'1 0.9
2015-Apr-18 09:33N 33°44' W 118°17'0 0.0
2015-Apr-18 08:33N 33°44' W 118°17'0 0.0
2015-Apr-18 07:34N 33°44' W 118°17'0 0.0
2015-Apr-18 06:33N 33°44' W 118°17'0 0.0
2015-Apr-18 05:33N 33°44' W 118°17'0 0.0
2015-Apr-18 04:34N 33°44' W 118°17'0 0.0
2015-Apr-18 03:33N 33°44' W 118°17'  

Dump ship's entire track history